createdAt,value
2018-03-18T00:00:38.949Z,21.97
2018-03-18T00:03:05.494Z,20.03
2018-03-18T00:05:31.851Z,19.60
2018-03-18T00:07:58.282Z,15.00
2018-03-18T00:10:24.614Z,25.23
2018-03-18T00:12:50.978Z,20.27
2018-03-18T00:15:17.322Z,20.27
2018-03-18T00:17:43.690Z,21.23
2018-03-18T00:20:10.041Z,18.77
2018-03-18T00:22:36.398Z,24.57
2018-03-18T00:25:02.838Z,26.07
2018-03-18T00:27:29.205Z,18.20
2018-03-18T00:29:55.569Z,26.53
2018-03-18T00:32:21.972Z,17.90
2018-03-18T00:34:48.354Z,18.37
2018-03-18T00:37:14.709Z,28.37
2018-03-18T00:39:41.083Z,22.47
2018-03-18T00:42:07.469Z,23.57
2018-03-18T00:44:33.803Z,20.30
2018-03-18T00:47:00.145Z,19.07
2018-03-18T00:49:26.525Z,25.63
2018-03-18T00:52:00.114Z,21.10
2018-03-18T00:54:26.530Z,16.10
2018-03-18T00:56:52.990Z,17.13
2018-03-18T00:59:19.353Z,20.23
2018-03-18T01:01:45.706Z,21.80
2018-03-18T01:04:12.070Z,20.23
2018-03-18T01:06:38.482Z,23.63
2018-03-18T01:09:04.920Z,23.90
2018-03-18T01:11:31.260Z,22.00
2018-03-18T01:13:57.645Z,15.17
2018-03-18T01:16:24.562Z,20.93
2018-03-18T01:18:50.922Z,29.80
2018-03-18T01:21:17.298Z,24.77
2018-03-18T01:23:43.677Z,21.50
2018-03-18T01:26:10.064Z,20.93
2018-03-18T01:28:36.417Z,25.77
2018-03-18T01:31:02.793Z,21.70
2018-03-18T01:33:29.169Z,22.30
2018-03-18T01:35:55.514Z,22.23
2018-03-18T01:38:21.997Z,27.17
2018-03-18T01:40:48.386Z,20.77
2018-03-18T01:43:14.763Z,16.83
2018-03-18T01:45:41.130Z,20.77
2018-03-18T01:48:07.631Z,18.27
2018-03-18T01:50:34.018Z,19.13
2018-03-18T01:53:12.637Z,24.37
2018-03-18T01:55:38.937Z,19.07
2018-03-18T01:58:05.447Z,23.30
2018-03-18T02:00:31.855Z,21.13
2018-03-18T02:02:58.239Z,21.77
2018-03-18T02:05:24.602Z,26.00
2018-03-18T02:07:50.950Z,25.83
2018-03-18T02:10:17.317Z,30.63
2018-03-18T02:12:43.682Z,26.37
2018-03-18T02:15:10.169Z,29.37
2018-03-18T02:17:36.534Z,18.93
2018-03-18T02:20:02.930Z,24.53
2018-03-18T02:22:29.318Z,24.03
2018-03-18T02:24:55.713Z,25.60
2018-03-18T02:27:22.110Z,21.83
2018-03-18T02:29:48.498Z,26.93
2018-03-18T02:32:14.874Z,19.47
2018-03-18T02:34:41.261Z,23.90
2018-03-18T02:37:07.612Z,28.43
2018-03-18T02:39:33.974Z,34.00
2018-03-18T02:42:00.318Z,19.10
2018-03-18T02:44:26.814Z,22.30
2018-03-18T02:46:53.213Z,21.90
2018-03-18T02:49:19.602Z,21.60
2018-03-18T02:51:45.955Z,14.83
2018-03-18T02:54:12.320Z,25.30
2018-03-18T02:56:38.682Z,21.70
2018-03-18T02:59:05.046Z,21.57
2018-03-18T03:01:31.402Z,20.73
2018-03-18T03:03:57.757Z,20.43
2018-03-18T03:06:24.146Z,24.83
2018-03-18T03:08:50.526Z,27.97
2018-03-18T03:11:16.913Z,21.43
2018-03-18T03:13:43.271Z,24.77
2018-03-18T03:16:09.733Z,21.00
2018-03-18T03:18:36.085Z,26.87
2018-03-18T03:21:02.462Z,21.80
2018-03-18T03:23:28.811Z,29.83
2018-03-18T03:25:55.165Z,23.70
2018-03-18T03:28:21.694Z,24.63
2018-03-18T03:30:48.094Z,23.27
2018-03-18T03:33:14.459Z,24.07
2018-03-18T03:35:40.817Z,20.77
2018-03-18T03:38:07.229Z,27.07
2018-03-18T03:40:33.594Z,16.53
2018-03-18T03:42:59.943Z,24.33
2018-03-18T03:45:26.297Z,23.67
2018-03-18T03:47:52.653Z,29.23
2018-03-18T03:50:19.050Z,20.83
2018-03-18T03:52:45.413Z,23.60
2018-03-18T03:55:11.770Z,21.97
2018-03-18T03:57:38.129Z,22.60
2018-03-18T04:00:04.633Z,29.47
2018-03-18T04:02:31.026Z,19.93
2018-03-18T04:04:57.658Z,27.97
2018-03-18T04:07:24.020Z,34.87
2018-03-18T04:09:50.366Z,22.40
2018-03-18T04:12:16.730Z,24.60
2018-03-18T04:14:43.090Z,28.73
2018-03-18T04:17:09.461Z,28.07
2018-03-18T04:19:35.853Z,44.23
2018-03-18T04:22:02.240Z,39.93
2018-03-18T04:24:28.582Z,28.87
2018-03-18T04:26:54.945Z,39.60
2018-03-18T04:29:21.322Z,35.70
2018-03-18T04:31:47.731Z,32.70
2018-03-18T04:34:14.114Z,28.67
2018-03-18T04:36:40.470Z,35.80
2018-03-18T04:39:06.837Z,28.03
2018-03-18T04:41:33.208Z,29.17
2018-03-18T04:43:59.562Z,35.23
2018-03-18T04:46:25.902Z,38.27
2018-03-18T04:48:52.270Z,31.90
2018-03-18T04:51:18.689Z,38.37
2018-03-18T04:53:45.172Z,36.83
2018-03-18T04:56:11.553Z,34.40
2018-03-18T04:58:37.909Z,30.63
2018-03-18T05:01:04.320Z,27.20
2018-03-18T05:03:30.684Z,27.47
2018-03-18T05:05:57.218Z,25.53
2018-03-18T05:08:23.634Z,30.97
2018-03-18T05:10:49.977Z,31.30
2018-03-18T05:13:16.430Z,22.70
2018-03-18T05:15:42.778Z,24.33
2018-03-18T05:18:09.158Z,25.00
2018-03-18T05:20:35.569Z,29.07
2018-03-18T05:23:01.972Z,26.77
2018-03-18T05:25:28.542Z,24.43
2018-03-18T05:27:54.910Z,28.33
2018-03-18T05:30:21.266Z,26.83
2018-03-18T05:32:47.688Z,25.80
2018-03-18T05:35:14.059Z,26.27
2018-03-18T05:37:40.434Z,30.20
2018-03-18T05:40:06.794Z,33.30
2018-03-18T05:42:33.197Z,18.77
2018-03-18T05:44:59.569Z,26.27
2018-03-18T05:47:25.939Z,30.47
2018-03-18T05:49:52.317Z,29.30
2018-03-18T05:52:18.726Z,28.60
2018-03-18T05:54:45.146Z,27.83
2018-03-18T05:57:11.489Z,31.20
2018-03-18T05:59:37.858Z,27.77
2018-03-18T06:02:04.279Z,23.33
2018-03-18T06:04:30.690Z,24.60
2018-03-18T06:06:57.090Z,27.37
2018-03-18T06:09:23.497Z,26.33
2018-03-18T06:11:49.846Z,31.03
2018-03-18T06:14:16.856Z,33.57
2018-03-18T06:16:43.237Z,36.20
2018-03-18T06:19:09.638Z,30.40
2018-03-18T06:21:36.162Z,25.50
2018-03-18T06:24:02.718Z,36.77
2018-03-18T06:26:29.165Z,31.07
2018-03-18T06:28:55.533Z,22.57
2018-03-18T06:31:21.903Z,28.33
2018-03-18T06:33:48.274Z,27.07
2018-03-18T06:36:14.760Z,122.00
2018-03-18T06:38:41.210Z,31.13
2018-03-18T06:41:07.715Z,21.07
2018-03-18T06:43:34.102Z,26.27
2018-03-18T06:46:00.492Z,29.50
2018-03-18T06:48:26.919Z,35.67
2018-03-18T06:50:53.310Z,37.37
2018-03-18T06:53:19.746Z,32.07
2018-03-18T06:55:46.174Z,36.07
2018-03-18T06:58:12.570Z,25.13
2018-03-18T07:00:39.013Z,34.00
2018-03-18T07:03:05.592Z,28.37
2018-03-18T07:05:31.970Z,31.80
2018-03-18T07:07:58.347Z,33.47
2018-03-18T07:10:24.709Z,25.07
2018-03-18T07:12:51.125Z,31.83
2018-03-18T07:15:17.481Z,31.53
2018-03-18T07:17:43.855Z,33.53
2018-03-18T07:20:10.230Z,31.00
2018-03-18T07:22:36.630Z,39.80
2018-03-18T07:25:03.027Z,34.70
2018-03-18T07:27:29.476Z,37.87
2018-03-18T07:29:55.857Z,32.77
2018-03-18T07:32:22.226Z,30.03
2018-03-18T07:34:48.625Z,31.17
2018-03-18T07:37:15.023Z,29.93
2018-03-18T07:39:41.393Z,40.47
2018-03-18T07:42:07.823Z,26.63
2018-03-18T07:44:34.199Z,25.47
2018-03-18T07:47:00.641Z,22.83
2018-03-18T07:49:26.997Z,23.10
2018-03-18T07:51:53.490Z,22.83
2018-03-18T07:54:19.954Z,23.97
2018-03-18T07:56:46.368Z,21.17
2018-03-18T07:59:12.771Z,23.70
2018-03-18T08:01:39.149Z,19.80
2018-03-18T08:04:05.556Z,16.63
2018-03-18T08:06:32.003Z,21.67
2018-03-18T08:08:58.400Z,19.13
2018-03-18T08:11:25.055Z,16.43
2018-03-18T08:13:51.710Z,21.43
2018-03-18T08:16:18.168Z,16.30
2018-03-18T08:18:44.758Z,18.33
2018-03-18T08:21:11.217Z,19.33
2018-03-18T08:23:37.650Z,16.77
2018-03-18T08:26:04.142Z,23.43
2018-03-18T08:28:30.574Z,16.63
2018-03-18T08:30:57.011Z,21.10
2018-03-18T08:33:23.494Z,20.87
2018-03-18T08:35:49.886Z,15.30
2018-03-18T08:38:16.346Z,14.93
2018-03-18T08:40:42.755Z,22.77
2018-03-18T08:43:09.151Z,18.67
2018-03-18T08:45:37.514Z,25.17
2018-03-18T08:48:04.003Z,19.80
2018-03-18T08:50:30.394Z,15.10
2018-03-18T08:52:56.790Z,22.23
2018-03-18T08:55:23.162Z,16.73
2018-03-18T08:57:49.565Z,22.60
2018-03-18T09:00:16.030Z,18.83
2018-03-18T09:02:42.533Z,21.33
2018-03-18T09:05:08.935Z,23.10
2018-03-18T09:07:35.314Z,23.37
2018-03-18T09:10:01.740Z,18.40
2018-03-18T09:12:28.239Z,25.37
2018-03-18T09:14:54.617Z,19.77
2018-03-18T09:17:20.999Z,25.63
2018-03-18T09:19:47.354Z,21.33
2018-03-18T09:22:13.722Z,22.20
2018-03-18T09:24:40.095Z,20.87
2018-03-18T09:27:06.571Z,24.20
2018-03-18T09:29:33.065Z,17.40
2018-03-18T09:31:59.474Z,17.03
2018-03-18T09:34:25.878Z,17.53
2018-03-18T09:36:52.306Z,18.10
2018-03-18T09:39:18.818Z,18.67
2018-03-18T09:41:45.212Z,14.40
2018-03-18T09:44:11.632Z,15.13
2018-03-18T09:46:38.057Z,19.43
2018-03-18T09:49:04.430Z,15.13
2018-03-18T09:51:30.814Z,17.00
2018-03-18T09:53:57.221Z,15.43
2018-03-18T09:56:23.662Z,13.97
2018-03-18T09:58:50.213Z,12.50
2018-03-18T10:01:16.598Z,13.80
2018-03-18T10:03:43.073Z,16.00
2018-03-18T10:06:09.441Z,13.53
2018-03-18T10:08:35.870Z,9.77
2018-03-18T10:11:02.282Z,13.63
2018-03-18T10:13:28.718Z,16.50
2018-03-18T10:15:55.150Z,16.23
2018-03-18T10:18:21.571Z,19.00
2018-03-18T10:20:48.000Z,15.20
2018-03-18T10:23:14.429Z,14.80
2018-03-18T10:25:40.912Z,14.70
2018-03-18T10:28:07.440Z,12.87
2018-03-18T10:30:33.862Z,9.60
2018-03-18T10:33:00.588Z,11.03
2018-03-18T10:35:27.099Z,9.17
2018-03-18T10:37:53.561Z,12.03
2018-03-18T10:40:19.973Z,11.70
2018-03-18T10:42:46.397Z,14.37
2018-03-18T10:45:12.795Z,12.23
2018-03-18T10:47:39.434Z,10.93
2018-03-18T10:50:05.926Z,10.13
2018-03-18T10:52:32.370Z,11.33
2018-03-18T10:54:58.931Z,9.70
2018-03-18T10:57:25.530Z,12.27
2018-03-18T10:59:51.910Z,11.53
2018-03-18T11:02:22.425Z,11.33
2018-03-18T11:04:48.810Z,10.70
2018-03-18T11:07:15.215Z,13.03
2018-03-18T11:09:46.573Z,9.43
2018-03-18T11:12:16.192Z,8.60
2018-03-18T11:14:43.426Z,10.50
2018-03-18T11:17:09.858Z,11.60
2018-03-18T11:19:36.300Z,7.07
2018-03-18T11:22:02.770Z,10.03
2018-03-18T11:24:29.329Z,11.23
2018-03-18T11:26:55.779Z,11.00
2018-03-18T11:29:22.198Z,10.30
2018-03-18T11:31:48.638Z,9.20
2018-03-18T11:34:23.306Z,8.47
2018-03-18T11:36:49.781Z,8.77
2018-03-18T11:39:16.298Z,8.60
2018-03-18T11:41:42.694Z,9.33
2018-03-18T11:44:09.149Z,8.53
2018-03-18T11:46:35.590Z,9.37
2018-03-18T11:49:02.034Z,8.07
2018-03-18T11:51:28.515Z,6.90
2018-03-18T11:53:55.127Z,9.27
2018-03-18T11:56:21.553Z,10.20
2018-03-18T11:58:48.087Z,10.47
2018-03-18T12:01:14.491Z,12.07
2018-03-18T12:03:40.886Z,9.63
2018-03-18T12:06:07.315Z,8.33
2018-03-18T12:08:45.933Z,10.10
2018-03-18T12:11:12.306Z,10.57
2018-03-18T12:13:38.734Z,9.60
2018-03-18T12:16:05.173Z,9.83
2018-03-18T12:18:31.660Z,7.73
2018-03-18T12:20:58.058Z,9.43
2018-03-18T12:23:24.450Z,8.90
2018-03-18T12:25:50.837Z,9.13
2018-03-18T12:28:17.276Z,7.87
2018-03-18T12:30:43.698Z,7.83
2018-03-18T12:33:10.122Z,10.87
2018-03-18T12:35:36.541Z,9.10
2018-03-18T12:38:02.985Z,5.60
2018-03-18T12:40:32.337Z,5.17
2018-03-18T12:43:10.885Z,6.37
2018-03-18T12:45:37.227Z,6.20
2018-03-18T12:48:03.691Z,4.73
2018-03-18T12:50:30.172Z,4.30
2018-03-18T12:52:56.643Z,5.10
2018-03-18T12:55:23.066Z,8.20
2018-03-18T12:57:49.468Z,6.13
2018-03-18T13:00:15.838Z,4.93
2018-03-18T13:02:42.243Z,5.67
2018-03-18T13:05:08.725Z,9.10
2018-03-18T13:07:35.138Z,5.27
2018-03-18T13:10:01.565Z,6.43
2018-03-18T13:12:27.977Z,5.17
2018-03-18T13:14:54.430Z,7.20
2018-03-18T13:17:20.810Z,8.87
2018-03-18T13:19:47.266Z,9.40
2018-03-18T13:22:13.682Z,8.23
2018-03-18T13:24:40.150Z,9.17
2018-03-18T13:27:06.502Z,5.63
2018-03-18T13:29:32.875Z,10.83
2018-03-18T13:31:59.250Z,11.83
2018-03-18T13:34:25.633Z,13.90
2018-03-18T13:36:52.115Z,15.10
2018-03-18T13:39:18.506Z,13.17
2018-03-18T13:41:44.965Z,15.17
2018-03-18T13:44:11.405Z,10.77
2018-03-18T13:46:37.891Z,16.37
2018-03-18T13:49:04.286Z,15.30
2018-03-18T13:51:30.695Z,18.37
2018-03-18T13:53:57.104Z,13.77
2018-03-18T13:56:23.550Z,16.33
2018-03-18T13:58:49.945Z,19.47
2018-03-18T14:01:16.361Z,19.10
2018-03-18T14:03:43.210Z,18.77
2018-03-18T14:06:09.682Z,19.67
2018-03-18T14:08:36.186Z,23.87
2018-03-18T14:11:02.649Z,21.37
2018-03-18T14:13:29.398Z,18.07
2018-03-18T14:15:55.789Z,16.90
2018-03-18T14:18:22.190Z,22.30
2018-03-18T14:20:48.589Z,23.33
2018-03-18T14:23:15.006Z,23.53
2018-03-18T14:25:41.433Z,20.70
2018-03-18T14:28:07.817Z,24.37
2018-03-18T14:30:34.217Z,19.87
2018-03-18T14:33:00.677Z,16.93
2018-03-18T14:35:27.220Z,14.87
2018-03-18T14:37:53.626Z,16.40
2018-03-18T14:40:20.079Z,19.97
2018-03-18T14:42:46.502Z,43.53
2018-03-18T14:45:12.910Z,40.63
2018-03-18T14:47:39.286Z,31.03
2018-03-18T14:50:05.873Z,25.63
2018-03-18T14:52:32.340Z,39.93
2018-03-18T14:54:58.738Z,33.23
2018-03-18T14:57:25.150Z,25.57
2018-03-18T14:59:51.546Z,26.53
2018-03-18T15:02:17.967Z,29.07
2018-03-18T15:04:44.573Z,36.90
2018-03-18T15:07:11.097Z,33.00
2018-03-18T15:09:37.565Z,34.40
2018-03-18T15:12:04.030Z,31.47
2018-03-18T15:14:30.461Z,32.53
2018-03-18T15:16:56.870Z,26.20
2018-03-18T15:19:23.350Z,24.33
2018-03-18T15:21:49.710Z,29.03
2018-03-18T15:24:16.106Z,33.77
2018-03-18T15:26:42.485Z,36.87
2018-03-18T15:29:08.934Z,40.00
2018-03-18T15:31:35.330Z,46.37
2018-03-18T15:34:01.769Z,54.07
2018-03-18T15:36:28.181Z,44.67
2018-03-18T15:38:54.626Z,47.23
2018-03-18T15:41:21.199Z,40.13
2018-03-18T15:43:47.736Z,35.07
2018-03-18T15:46:14.206Z,30.17
2018-03-18T15:48:40.690Z,30.03
2018-03-18T15:51:07.118Z,24.83
2018-03-18T15:53:33.605Z,20.10
2018-03-18T15:56:00.098Z,22.50
2018-03-18T15:58:26.539Z,25.37
2018-03-18T16:00:52.946Z,26.10
2018-03-18T16:03:19.331Z,31.30
2018-03-18T16:05:45.775Z,24.63
2018-03-18T16:08:12.183Z,24.70
2018-03-18T16:10:38.610Z,42.30
2018-03-18T16:13:05.195Z,37.73
2018-03-18T16:15:31.686Z,35.27
2018-03-18T16:17:58.090Z,30.93
2018-03-18T16:20:24.487Z,31.90
2018-03-18T16:22:51.102Z,26.97
2018-03-18T16:25:17.787Z,26.20
2018-03-18T16:27:44.213Z,27.60
2018-03-18T16:30:22.713Z,20.33
2018-03-18T16:32:49.078Z,20.67
2018-03-18T16:35:15.491Z,22.13
2018-03-18T16:37:41.970Z,18.00
2018-03-18T16:40:08.586Z,19.17
2018-03-18T16:42:34.977Z,26.37
2018-03-18T16:45:01.714Z,24.37
2018-03-18T16:47:28.137Z,27.70
2018-03-18T16:49:54.567Z,29.23
2018-03-18T16:52:20.981Z,22.80
2018-03-18T16:54:47.374Z,31.00
2018-03-18T16:57:13.802Z,31.87
2018-03-18T16:59:40.271Z,34.03
2018-03-18T17:02:06.711Z,33.87
2018-03-18T17:04:33.147Z,35.50
2018-03-18T17:06:59.558Z,32.97
2018-03-18T17:09:25.958Z,29.33
2018-03-18T17:11:52.346Z,37.83
2018-03-18T17:14:18.745Z,35.17
2018-03-18T17:16:45.185Z,28.00
2018-03-18T17:19:11.626Z,29.63
2018-03-18T17:21:38.055Z,27.80
2018-03-18T17:24:04.595Z,19.60
2018-03-18T17:26:31.077Z,25.20
2018-03-18T17:28:57.522Z,25.47
2018-03-18T17:31:23.931Z,32.03
2018-03-18T17:33:50.487Z,27.70
2018-03-18T17:36:16.904Z,25.33
2018-03-18T17:38:43.366Z,23.00
2018-03-18T17:41:09.727Z,25.60
2018-03-18T17:43:36.121Z,19.20
2018-03-18T17:46:14.720Z,21.10
2018-03-18T17:48:53.383Z,20.23
2018-03-18T17:51:31.913Z,19.40
2018-03-18T17:54:10.490Z,17.83
2018-03-18T17:56:36.873Z,20.17
2018-03-18T17:59:03.338Z,22.40
2018-03-18T18:01:29.863Z,26.67
2018-03-18T18:03:56.257Z,21.37
2018-03-18T18:06:22.683Z,22.07
2018-03-18T18:08:49.135Z,16.50
2018-03-18T18:11:16.489Z,19.10
2018-03-18T18:13:42.910Z,16.20
2018-03-18T18:16:09.385Z,19.40
2018-03-18T18:18:35.794Z,41.87
2018-03-18T18:21:02.227Z,114.10
2018-03-18T18:23:28.663Z,42.27
2018-03-18T18:25:55.226Z,20.97
2018-03-18T18:28:21.671Z,17.87
2018-03-18T18:30:50.494Z,15.57
2018-03-18T18:33:16.898Z,17.17
2018-03-18T18:35:43.302Z,18.53
2018-03-18T18:38:09.721Z,14.63
2018-03-18T18:40:36.169Z,19.07
2018-03-18T18:43:02.638Z,17.50
2018-03-18T18:45:29.059Z,15.27
2018-03-18T18:47:55.458Z,20.87
2018-03-18T18:50:21.882Z,24.30
2018-03-18T18:52:48.363Z,29.13
2018-03-18T18:55:14.798Z,22.23
2018-03-18T18:57:41.205Z,23.40
2018-03-18T19:00:07.674Z,20.90
2018-03-18T19:02:34.145Z,17.33
2018-03-18T19:05:00.538Z,22.37
2018-03-18T19:07:26.933Z,17.73
2018-03-18T19:09:53.330Z,21.40
2018-03-18T19:12:19.702Z,20.97
2018-03-18T19:14:46.186Z,22.77
2018-03-18T19:17:12.685Z,24.37
2018-03-18T19:19:39.046Z,23.53
2018-03-18T19:22:05.490Z,34.93
2018-03-18T19:24:32.029Z,36.30
2018-03-18T19:26:58.488Z,32.63
2018-03-18T19:29:24.958Z,28.43
2018-03-18T19:31:51.354Z,22.20
2018-03-18T19:34:17.750Z,21.33
2018-03-18T19:36:44.323Z,25.93
2018-03-18T19:39:12.090Z,26.50
2018-03-18T19:41:38.611Z,25.77
2018-03-18T19:44:05.134Z,21.33
2018-03-18T19:46:31.577Z,18.53
2018-03-18T19:48:58.090Z,16.93
2018-03-18T19:51:24.486Z,11.90
2018-03-18T19:53:51.837Z,11.33
2018-03-18T19:56:18.286Z,10.83
2018-03-18T19:58:44.681Z,12.00
2018-03-18T20:01:11.084Z,11.77
2018-03-18T20:03:37.494Z,8.97
2018-03-18T20:06:04.019Z,8.37
2018-03-18T20:08:30.416Z,8.17
2018-03-18T20:10:56.882Z,8.20
2018-03-18T20:13:23.313Z,6.57
2018-03-18T20:15:49.777Z,10.07
2018-03-18T20:18:16.201Z,7.80
2018-03-18T20:20:42.742Z,6.10
2018-03-18T20:23:09.121Z,5.03
2018-03-18T20:25:35.676Z,4.40
2018-03-18T20:28:02.110Z,4.53
2018-03-18T20:30:28.562Z,4.83
2018-03-18T20:32:55.014Z,4.37
2018-03-18T20:35:21.392Z,3.10
2018-03-18T20:37:47.810Z,3.37
2018-03-18T20:40:14.258Z,4.13
2018-03-18T20:42:40.633Z,2.53
2018-03-18T20:45:07.128Z,1.83
2018-03-18T20:47:33.483Z,6.87
2018-03-18T20:49:59.962Z,4.90
2018-03-18T20:52:26.390Z,2.80
2018-03-18T20:54:52.795Z,3.23
2018-03-18T20:57:19.181Z,2.33
2018-03-18T20:59:45.602Z,4.17
2018-03-18T21:02:12.018Z,2.37
2018-03-18T21:04:38.480Z,2.03
2018-03-18T21:07:04.878Z,1.80
2018-03-18T21:09:31.337Z,2.60
2018-03-18T21:11:57.784Z,2.67
2018-03-18T21:14:24.238Z,2.90
2018-03-18T21:16:50.627Z,4.17
2018-03-18T21:19:17.037Z,3.70
2018-03-18T21:21:43.441Z,4.70
2018-03-18T21:24:09.881Z,4.43
2018-03-18T21:26:36.262Z,4.67
2018-03-18T21:29:02.820Z,4.97
2018-03-18T21:31:29.218Z,4.57
2018-03-18T21:33:55.553Z,6.03
2018-03-18T21:36:22.044Z,4.17
2018-03-18T21:38:48.506Z,3.53
2018-03-18T21:41:14.877Z,4.27
2018-03-18T21:43:41.406Z,3.37
2018-03-18T21:46:08.234Z,3.03
2018-03-18T21:48:34.660Z,3.83
2018-03-18T21:51:01.046Z,3.77
2018-03-18T21:53:27.482Z,4.60
2018-03-18T21:55:53.891Z,4.87
2018-03-18T21:58:20.282Z,5.23
2018-03-18T22:00:46.733Z,4.67
2018-03-18T22:03:13.089Z,4.90
2018-03-18T22:05:39.449Z,4.50
2018-03-18T22:08:05.951Z,3.30
2018-03-18T22:10:32.346Z,3.00
2018-03-18T22:12:58.742Z,3.77
2018-03-18T22:15:25.119Z,2.23
2018-03-18T22:17:51.508Z,3.03
2018-03-18T22:20:17.966Z,3.50
2018-03-18T22:22:44.380Z,2.70
2018-03-18T22:25:10.746Z,2.80
2018-03-18T22:27:37.181Z,4.53
2018-03-18T22:30:03.630Z,4.23
2018-03-18T22:32:30.010Z,3.87
2018-03-18T22:34:56.458Z,3.57
2018-03-18T22:37:22.850Z,5.77
2018-03-18T22:39:49.253Z,3.10
2018-03-18T22:42:15.691Z,9.67
2018-03-18T22:44:42.061Z,4.47
2018-03-18T22:47:08.481Z,4.33
2018-03-18T22:49:34.904Z,3.37
2018-03-18T22:52:01.281Z,3.80
2018-03-18T22:54:27.694Z,4.80
2018-03-18T22:56:54.138Z,5.47
2018-03-18T22:59:20.518Z,3.97
2018-03-18T23:01:47.006Z,4.73
2018-03-18T23:04:13.394Z,7.33
2018-03-18T23:06:39.778Z,4.53
2018-03-18T23:09:06.261Z,6.17
2018-03-18T23:11:32.669Z,4.63
2018-03-18T23:13:59.093Z,5.30
2018-03-18T23:16:25.569Z,5.13
2018-03-18T23:18:51.968Z,7.23
2018-03-18T23:21:18.494Z,4.90
2018-03-18T23:23:44.910Z,5.17
2018-03-18T23:26:11.314Z,4.53
2018-03-18T23:28:37.754Z,6.43
2018-03-18T23:31:04.161Z,5.17
2018-03-18T23:33:30.574Z,4.37
2018-03-18T23:35:57.154Z,5.83
2018-03-18T23:38:23.586Z,8.47
2018-03-18T23:40:50.043Z,4.60
2018-03-18T23:43:16.435Z,3.83
2018-03-18T23:45:42.825Z,5.13
2018-03-18T23:48:09.197Z,4.80
2018-03-18T23:50:35.670Z,3.80
2018-03-18T23:53:02.125Z,4.63
2018-03-18T23:55:28.479Z,5.30
2018-03-18T23:57:54.869Z,5.10
